Thursday, October 30, 2014
12:17 UTC
  |  Log In   |  Register Free
Airport Search:

Foothills Regional Airport
(KMRN)

Foothills Regional Airport Diagram
No Airport Diagram Available

FAA data valid effective September 18, 2014 - November 13, 2014 (unless otherwise noted).

 
 
 
 
 
 
 
 
 
 
 
 
 
 

Current Aviation Weather for Foothills Regional Airport (KMRN)

The most recent METAR observation for KMRN was updated at: 1214
METAR Summary (Translated METAR)
KMRN
301155Z AUTO 00000KT 5SM BR CLR 01/01 A3012 RMK AO2 T00050005 10039 20000
KHKY
301153Z 00000KT 10SM CLR 06/03 A3007 RMK AO2 SLP170 T00560033 10106 20050 51011
(11.8 nm SE from KMRN)
KFQD
301155Z AUTO 00000KT 10SM CLR 03/03 A3008 RMK AO2 T00300025 10095 20027
(28.3 nm SW from KMRN)
TAF Summary (Translated TAF)
KHKY
(11.8 nm SE from KMRN)
300528Z 3006/3106 36004KT P6SM FEW250 FM301500 35003KT P6SM SKC
  Airport Weather Conditions for KMRN

 Current Weather at MRN
33° F
Fog/Mist
North winds at 0.0 mph
MRN NOAA Radar

Pressure: 30.12 in
Humidity: 100%
Wind: Calm
Dew Point: 32.9°F
Visibility: 5.00 mi


Airport Weather Forecast for KMRN

Translated METAR and TAF for KMRN
Translated METAR for KMRN (1212 UTC 30 October 2014)
found at http://aviationweather.gov/adds/metars/
 
METAR text: KMRN 301155Z AUTO 00000KT 5SM BR CLR 01/01 A3012 RMK AO2 T00050005 10039 20000
Conditions at: KMRN (MORGANTON/LENOIR, NC, US) observed 1155 UTC 30 October 2014
Temperature: 0.5°C (33°F)
Dewpoint: 0.5°C (33°F) [RH = 100%]
Pressure (altimeter): 30.12 inches Hg (1020.1 mb)
Winds: calm
Visibility: 5 miles (8 km)
Ceiling: at least 12,000 feet AGL
Clouds: sky clear below 12,000 feet AGL
Weather: BR  (mist)
Translated TAF for KMRN

There is no translated TAF available for this airport

Find All Airport Services Find A Hotel Find A Rental Car Find A Golf Course Find A Restaurant $100 Hamburger



FBO's on the Field
FBO Company Facility Photos Services Transportation Aviation Fuel Prices: Prices include tax
Catering Weather Repair Courtesy Rental Type 100LL JetA JetA+ MOGAS 8087
 
Foothills Aviation

This FBO has not yet been rated
FS:Shell
Last Updated: Oct-10
Login to update fuel prices
SS:
Contact Foothills AviationMore FBO Information
 
Add another FBO Facility Photos Catering Weather Repair Courtesy Rental Type 100LL JetA JetA+ MOGAS 8087
Services Transportation Aviation Fuel Prices: Prices include tax


model-print
model-print
model-print
model-print